createdAt,value
2023-03-15T00:02:53.493Z,99938.19
2023-03-15T00:05:58.962Z,99938.16
2023-03-15T00:09:03.157Z,99937.28
2023-03-15T00:12:06.659Z,99940.09
2023-03-15T00:15:15.713Z,99953.56
2023-03-15T00:18:20.611Z,99956.34
2023-03-15T00:21:24.008Z,99948.38
2023-03-15T00:24:28.031Z,99959.22
2023-03-15T00:27:30.754Z,99962.03
2023-03-15T00:30:33.796Z,99956.84
2023-03-15T00:33:39.530Z,99973.72
2023-03-15T00:36:56.126Z,99975.50
2023-03-15T00:40:00.218Z,99973.84
2023-03-15T00:43:03.458Z,99984.66
2023-03-15T00:46:12.634Z,99991.84
2023-03-15T00:49:15.828Z,100001.69
2023-03-15T00:52:19.398Z,100000.81
2023-03-15T00:55:26.939Z,99996.31
2023-03-15T00:58:29.741Z,100001.81
2023-03-15T01:01:34.609Z,100011.63
2023-03-15T01:04:53.091Z,100015.31
2023-03-15T01:07:58.074Z,100016.47
2023-03-15T01:11:05.072Z,100016.53
2023-03-15T01:14:08.881Z,100033.31
2023-03-15T01:17:11.864Z,100032.56
2023-03-15T01:20:17.521Z,100042.38
2023-03-15T01:23:26.644Z,100038.03
2023-03-15T01:26:34.501Z,100045.13
2023-03-15T01:32:53.733Z,100046.97
2023-03-15T01:36:02.002Z,100046.97
2023-03-15T01:39:05.567Z,100054.25
2023-03-15T01:42:10.094Z,100055.25
2023-03-15T01:45:46.073Z,100065.09
2023-03-15T01:48:52.539Z,100058.03
2023-03-15T01:52:02.123Z,100072.28
2023-03-15T01:55:10.164Z,100075.03
2023-03-15T01:58:15.099Z,100064.63
2023-03-15T02:01:20.040Z,100074.31
2023-03-15T02:04:28.451Z,100078.78
2023-03-15T02:07:34.631Z,100071.00
2023-03-15T02:10:41.676Z,100101.16
2023-03-15T02:13:46.140Z,100105.72
2023-03-15T02:16:50.088Z,100099.53
2023-03-15T02:20:00.652Z,100097.75
2023-03-15T02:23:07.538Z,100099.63
2023-03-15T02:26:24.922Z,100103.22
2023-03-15T02:29:30.607Z,100089.91
2023-03-15T02:32:33.346Z,100097.97
2023-03-15T02:35:37.891Z,100111.34
2023-03-15T02:38:45.854Z,100103.41
2023-03-15T02:41:51.986Z,100110.63
2023-03-15T02:44:59.504Z,100116.84
2023-03-15T02:48:03.852Z,100113.31
2023-03-15T02:51:06.800Z,100115.06
2023-03-15T02:54:09.548Z,100122.28
2023-03-15T02:57:12.938Z,100127.63
2023-03-15T03:00:17.518Z,100130.38
2023-03-15T03:03:20.303Z,100138.16
2023-03-15T03:06:26.987Z,100137.22
2023-03-15T03:09:38.024Z,100148.00
2023-03-15T03:12:40.857Z,100152.53
2023-03-15T03:16:00.790Z,100155.31
2023-03-15T03:19:05.618Z,100166.06
2023-03-15T03:22:08.426Z,100160.72
2023-03-15T03:25:19.004Z,100159.88
2023-03-15T03:28:23.048Z,100165.25
2023-03-15T03:31:28.822Z,100172.41
2023-03-15T03:34:31.488Z,100173.28
2023-03-15T03:37:36.683Z,100177.81
2023-03-15T03:40:44.757Z,100186.75
2023-03-15T03:43:47.512Z,100188.63
2023-03-15T03:46:51.589Z,100178.84
2023-03-15T03:49:56.711Z,100185.16
2023-03-15T03:52:59.416Z,100195.00
2023-03-15T03:56:04.106Z,100201.28
2023-03-15T03:59:09.109Z,100202.16
2023-03-15T04:02:13.799Z,100209.28
2023-03-15T04:05:19.532Z,100213.78
2023-03-15T04:08:23.247Z,100222.66
2023-03-15T04:11:26.712Z,100224.44
2023-03-15T04:14:29.463Z,100228.00
2023-03-15T04:17:36.496Z,100236.00
2023-03-15T04:20:39.194Z,100242.22
2023-03-15T04:23:51.006Z,100248.44
2023-03-15T04:26:57.877Z,100255.56
2023-03-15T04:30:07.550Z,100250.22
2023-03-15T04:33:12.366Z,100248.41
2023-03-15T04:36:27.287Z,100263.50
2023-03-15T04:39:30.214Z,100261.78
2023-03-15T04:42:32.974Z,100253.72
2023-03-15T04:45:35.997Z,100267.94
2023-03-15T04:48:40.038Z,100265.28
2023-03-15T04:51:45.514Z,100267.91
2023-03-15T04:54:48.257Z,100265.28
2023-03-15T04:57:52.544Z,100266.16
2023-03-15T05:00:58.370Z,100259.94
2023-03-15T05:04:03.604Z,100259.88
2023-03-15T05:07:08.543Z,100264.31
2023-03-15T05:10:13.300Z,100255.38
2023-03-15T05:13:15.956Z,100251.88
2023-03-15T05:16:18.788Z,100261.72
2023-03-15T05:19:34.601Z,100265.22
2023-03-15T05:22:38.131Z,100269.63
2023-03-15T05:25:43.176Z,100280.28
2023-03-15T05:28:59.799Z,100283.72
2023-03-15T05:32:04.424Z,100278.44
2023-03-15T05:35:09.936Z,100290.88
2023-03-15T05:38:14.533Z,100287.28
2023-03-15T05:41:18.348Z,100288.03
2023-03-15T05:44:23.633Z,100286.19
2023-03-15T05:47:27.564Z,100279.13
2023-03-15T05:50:34.460Z,100281.81
2023-03-15T05:53:37.152Z,100287.13
2023-03-15T05:56:40.010Z,100285.31
2023-03-15T05:59:43.145Z,100290.56
2023-03-15T06:02:49.676Z,100293.22
2023-03-15T06:05:57.374Z,100299.47
2023-03-15T06:09:03.242Z,100301.22
2023-03-15T06:12:06.843Z,100289.66
2023-03-15T06:15:13.070Z,100301.16
2023-03-15T06:18:17.390Z,100295.75
2023-03-15T06:21:28.968Z,100302.72
2023-03-15T06:24:33.276Z,100297.22
2023-03-15T06:27:36.069Z,100300.69
2023-03-15T06:30:39.887Z,100304.44
2023-03-15T06:33:42.986Z,100285.25
2023-03-15T06:36:47.413Z,100291.72
2023-03-15T06:39:51.089Z,100276.09
2023-03-15T06:42:54.594Z,100285.53
2023-03-15T06:45:59.956Z,100290.41
2023-03-15T06:49:03.576Z,100290.97
2023-03-15T06:52:08.489Z,100311.84
2023-03-15T06:55:12.679Z,100311.31
2023-03-15T06:58:15.561Z,100320.47
2023-03-15T07:01:18.221Z,100323.41
2023-03-15T07:04:21.628Z,100317.22
2023-03-15T07:07:25.769Z,100317.22
2023-03-15T07:10:28.461Z,100323.38
2023-03-15T07:13:31.114Z,100329.81
2023-03-15T07:16:33.843Z,100323.63
2023-03-15T07:19:43.912Z,100338.84
2023-03-15T07:22:50.766Z,100343.34
2023-03-15T07:25:55.495Z,100344.41
2023-03-15T07:28:59.623Z,100340.94
2023-03-15T07:32:02.393Z,100340.00
2023-03-15T07:35:05.557Z,100336.44
2023-03-15T07:38:13.065Z,100338.09
2023-03-15T07:41:15.725Z,100343.34
2023-03-15T07:44:18.529Z,100337.81
2023-03-15T07:47:21.249Z,100357.44
2023-03-15T07:50:23.930Z,100349.41
2023-03-15T07:53:28.252Z,100362.69
2023-03-15T07:56:31.226Z,100363.53
2023-03-15T07:59:33.876Z,100353.72
2023-03-15T08:02:36.826Z,100366.13
2023-03-15T08:05:39.968Z,100351.84
2023-03-15T08:08:45.412Z,100364.44
2023-03-15T08:11:48.065Z,100365.41
2023-03-15T08:14:51.436Z,100354.69
2023-03-15T08:17:54.236Z,100364.34
2023-03-15T08:20:57.191Z,100362.50
2023-03-15T08:24:02.047Z,100365.94
2023-03-15T08:27:05.668Z,100362.34
2023-03-15T08:30:12.057Z,100369.34
2023-03-15T08:33:17.613Z,100384.44
2023-03-15T08:36:21.141Z,100369.06
2023-03-15T08:39:27.197Z,100386.00
2023-03-15T08:42:29.859Z,100383.25
2023-03-15T08:45:37.498Z,100390.34
2023-03-15T08:48:45.595Z,100396.56
2023-03-15T08:51:49.148Z,100403.75
2023-03-15T08:54:53.239Z,100408.28
2023-03-15T08:57:55.917Z,100405.50
2023-03-15T09:00:58.646Z,100417.16
2023-03-15T09:04:09.762Z,100418.97
2023-03-15T09:07:13.422Z,100426.00
2023-03-15T09:10:18.567Z,100428.63
2023-03-15T09:13:28.805Z,100425.03
2023-03-15T09:16:31.508Z,100436.72
2023-03-15T09:19:34.384Z,100441.13
2023-03-15T09:22:39.910Z,100431.91
2023-03-15T09:25:44.027Z,100446.22
2023-03-15T09:28:46.721Z,100435.13
2023-03-15T09:31:50.040Z,100450.22
2023-03-15T09:34:52.844Z,100456.28
2023-03-15T09:37:55.642Z,100447.28
2023-03-15T09:41:03.790Z,100454.47
2023-03-15T09:44:16.107Z,100449.00
2023-03-15T09:47:33.218Z,100450.63
2023-03-15T09:50:48.433Z,100452.16
2023-03-15T09:53:58.454Z,100451.84
2023-03-15T09:57:05.932Z,100450.00
2023-03-15T10:00:14.428Z,100439.53
2023-03-15T10:03:26.135Z,100461.69
2023-03-15T10:06:36.566Z,100469.78
2023-03-15T10:09:44.423Z,100468.31
2023-03-15T10:12:56.956Z,100476.53
2023-03-15T10:16:05.114Z,100477.44
2023-03-15T10:19:18.980Z,100479.13
2023-03-15T10:22:29.027Z,100473.84
2023-03-15T10:25:33.662Z,100475.47
2023-03-15T10:28:38.923Z,100478.00
2023-03-15T10:31:44.944Z,100479.66
2023-03-15T10:34:50.564Z,100476.94
2023-03-15T10:37:53.273Z,100482.41
2023-03-15T10:41:00.652Z,100487.78
2023-03-15T10:44:08.194Z,100486.81
2023-03-15T10:47:24.193Z,100487.66
2023-03-15T10:50:31.982Z,100489.31
2023-03-15T10:53:35.638Z,100467.00
2023-03-15T10:56:47.916Z,100480.09
2023-03-15T11:00:06.621Z,100478.09
2023-03-15T11:03:17.740Z,100479.50
2023-03-15T11:06:29.033Z,100482.94
2023-03-15T11:09:41.438Z,100450.22
2023-03-15T11:12:47.284Z,100475.03
2023-03-15T11:16:03.908Z,100479.69
2023-03-15T11:19:16.964Z,100466.28
2023-03-15T11:22:19.697Z,100480.69
2023-03-15T11:25:26.845Z,100485.16
2023-03-15T11:28:32.775Z,100482.56
2023-03-15T11:31:46.011Z,100490.66
2023-03-15T11:35:17.748Z,100505.94
2023-03-15T11:38:33.439Z,100510.59
2023-03-15T11:41:41.070Z,100485.72
2023-03-15T11:44:47.165Z,100493.44
2023-03-15T11:47:54.926Z,100502.19
2023-03-15T11:50:59.704Z,100504.78
2023-03-15T11:54:13.920Z,100502.84
2023-03-15T11:57:51.125Z,100497.09
2023-03-15T12:00:57.121Z,100482.03
2023-03-15T12:04:33.672Z,100494.38
2023-03-15T12:08:00.918Z,100498.97
2023-03-15T12:11:11.686Z,100484.66
2023-03-15T12:14:31.256Z,100473.91
2023-03-15T12:17:45.504Z,100495.97
2023-03-15T12:20:57.509Z,100497.31
2023-03-15T12:24:17.354Z,100500.34
2023-03-15T12:27:23.147Z,100498.97
2023-03-15T12:30:31.916Z,100489.66
2023-03-15T12:33:46.716Z,100489.19
2023-03-15T12:36:54.135Z,100486.63
2023-03-15T12:40:04.776Z,100485.06
2023-03-15T12:43:08.434Z,100486.94
2023-03-15T12:46:47.993Z,100491.56
2023-03-15T12:49:50.731Z,100481.06
2023-03-15T12:52:53.933Z,100480.78
2023-03-15T12:56:08.636Z,100476.16
2023-03-15T12:59:31.889Z,100473.19
2023-03-15T13:02:43.692Z,100474.16
2023-03-15T13:06:03.863Z,100486.84
2023-03-15T13:09:20.065Z,100469.16
2023-03-15T13:12:32.001Z,100468.56
2023-03-15T13:15:42.841Z,100468.47
2023-03-15T13:18:53.893Z,100473.75
2023-03-15T13:22:18.088Z,100464.84
2023-03-15T13:25:35.656Z,100462.97
2023-03-15T13:28:42.841Z,100458.88
2023-03-15T13:32:02.231Z,100448.84
2023-03-15T13:35:05.240Z,100462.34
2023-03-15T13:38:26.299Z,100472.38
2023-03-15T13:41:30.888Z,100468.78
2023-03-15T13:44:35.251Z,100468.69
2023-03-15T13:47:38.126Z,100471.34
2023-03-15T13:50:40.988Z,100468.91
2023-03-15T13:53:50.244Z,100479.50
2023-03-15T13:57:07.401Z,100485.06
2023-03-15T14:00:14.673Z,100485.28
2023-03-15T14:03:23.928Z,100489.06
2023-03-15T14:06:29.716Z,100487.41
2023-03-15T14:09:32.639Z,100477.91
2023-03-15T14:12:35.388Z,100483.16
2023-03-15T14:15:44.236Z,100479.13
2023-03-15T14:18:51.375Z,100467.63
2023-03-15T14:21:56.230Z,100471.94
2023-03-15T14:24:59.956Z,100471.59
2023-03-15T14:28:03.334Z,100476.53
2023-03-15T14:31:08.833Z,100478.78
2023-03-15T14:34:23.869Z,100464.06
2023-03-15T14:37:31.896Z,100472.78
2023-03-15T14:40:36.844Z,100457.16
2023-03-15T14:43:39.671Z,100453.00
2023-03-15T14:46:43.748Z,100454.88
2023-03-15T14:49:47.386Z,100445.19
2023-03-15T14:52:51.845Z,100439.44
2023-03-15T14:55:54.564Z,100444.59
2023-03-15T14:58:57.268Z,100444.19
2023-03-15T15:02:03.940Z,100438.50
2023-03-15T15:05:19.703Z,100430.31
2023-03-15T15:08:23.199Z,100434.16
2023-03-15T15:11:26.165Z,100436.91
2023-03-15T15:14:28.899Z,100440.56
2023-03-15T15:17:32.908Z,100449.78
2023-03-15T15:20:35.748Z,100462.44
2023-03-15T15:23:54.926Z,100507.50
2023-03-15T15:27:00.428Z,100513.97
2023-03-15T15:30:04.027Z,100521.63
2023-03-15T15:33:08.393Z,100558.47
2023-03-15T15:36:14.875Z,100532.97
2023-03-15T15:39:22.502Z,100535.09
2023-03-15T15:42:25.278Z,100543.84
2023-03-15T15:45:28.026Z,100546.31
2023-03-15T15:48:32.133Z,100541.91
2023-03-15T15:51:38.056Z,100551.47
2023-03-15T15:54:41.124Z,100552.31
2023-03-15T15:57:45.226Z,100550.50
2023-03-15T16:00:47.985Z,100549.50
2023-03-15T16:03:52.258Z,100561.88
2023-03-15T16:06:58.641Z,100552.78
2023-03-15T16:10:01.540Z,100551.66
2023-03-15T16:13:05.580Z,100525.72
2023-03-15T16:16:13.790Z,100552.41
2023-03-15T16:19:17.880Z,100550.72
2023-03-15T16:22:23.044Z,100557.00
2023-03-15T16:25:33.748Z,100567.00
2023-03-15T16:28:41.160Z,100568.97
2023-03-15T16:31:43.958Z,100579.97
2023-03-15T16:34:48.795Z,100575.91
2023-03-15T16:37:56.652Z,100580.22
2023-03-15T16:41:01.808Z,100580.44
2023-03-15T16:44:06.197Z,100593.13
2023-03-15T16:47:10.047Z,100604.34
2023-03-15T16:50:14.314Z,100600.91
2023-03-15T16:53:17.131Z,100609.97
2023-03-15T16:56:20.030Z,100610.97
2023-03-15T16:59:22.796Z,100607.41
2023-03-15T17:02:27.748Z,100609.25
2023-03-15T17:05:33.875Z,100618.25
2023-03-15T17:08:37.070Z,100627.34
2023-03-15T17:11:42.623Z,100608.81
2023-03-15T17:14:45.387Z,100636.53
2023-03-15T17:17:48.480Z,100635.81
2023-03-15T17:20:52.505Z,100633.25
2023-03-15T17:23:55.541Z,100645.09
2023-03-15T17:27:02.126Z,100644.31
2023-03-15T17:30:17.925Z,100647.19
2023-03-15T17:33:20.656Z,100657.84
2023-03-15T17:36:27.165Z,100660.75
2023-03-15T17:39:29.852Z,100662.63
2023-03-15T17:42:32.561Z,100675.19
2023-03-15T17:45:35.701Z,100679.75
2023-03-15T17:48:38.653Z,100677.09
2023-03-15T17:51:43.268Z,100687.88
2023-03-15T17:54:47.204Z,100690.66
2023-03-15T17:57:55.250Z,100694.22
2023-03-15T18:00:58.647Z,100700.53
2023-03-15T18:04:02.184Z,100713.06
2023-03-15T18:07:06.895Z,100705.97
2023-03-15T18:10:12.137Z,100704.19
2023-03-15T18:13:17.610Z,100711.41
2023-03-15T18:16:20.700Z,100717.72
2023-03-15T18:19:23.602Z,100726.72
2023-03-15T18:22:27.733Z,100727.66
2023-03-15T18:25:32.768Z,100735.69
2023-03-15T18:28:35.542Z,100744.63
2023-03-15T18:31:38.353Z,100742.00
2023-03-15T18:34:41.542Z,100742.91
2023-03-15T18:37:45.836Z,100754.50
2023-03-15T18:40:51.132Z,100749.25
2023-03-15T18:43:53.842Z,100753.75
2023-03-15T18:46:56.625Z,100763.56
2023-03-15T18:50:09.712Z,100755.59
2023-03-15T18:53:14.860Z,100761.84
2023-03-15T18:56:21.337Z,100756.53
2023-03-15T18:59:25.842Z,100754.75
2023-03-15T19:02:28.950Z,100751.19
2023-03-15T19:05:35.134Z,100754.78
2023-03-15T19:08:39.290Z,100759.25
2023-03-15T19:11:43.506Z,100770.78
2023-03-15T19:14:46.181Z,100762.81
2023-03-15T19:17:55.227Z,100768.22
2023-03-15T19:20:57.886Z,100777.13
2023-03-15T19:24:05.199Z,100780.75
2023-03-15T19:27:07.875Z,100779.91
2023-03-15T19:30:18.135Z,100780.81
2023-03-15T19:33:24.915Z,100787.97
2023-03-15T19:36:27.594Z,100795.94
2023-03-15T19:39:31.643Z,100795.97
2023-03-15T19:42:37.447Z,100803.97
2023-03-15T19:45:40.609Z,100813.75
2023-03-15T19:48:43.322Z,100817.34
2023-03-15T19:52:11.557Z,100813.81
2023-03-15T19:55:17.219Z,100809.34
2023-03-15T19:58:19.911Z,100813.81
2023-03-15T20:01:24.955Z,100824.50
2023-03-15T20:04:28.166Z,100821.84
2023-03-15T20:07:33.914Z,100819.16
2023-03-15T20:10:38.302Z,100823.63
2023-03-15T20:13:42.024Z,100824.50
2023-03-15T20:16:44.999Z,100833.38
2023-03-15T20:19:50.267Z,100823.59
2023-03-15T20:22:52.946Z,100831.63
2023-03-15T20:26:07.188Z,100840.50
2023-03-15T20:29:09.934Z,100839.63
2023-03-15T20:32:16.572Z,100842.28
2023-03-15T20:35:21.474Z,100842.28
2023-03-15T20:38:26.909Z,100847.59
2023-03-15T20:41:30.957Z,100847.63
2023-03-15T20:44:33.732Z,100846.72
2023-03-15T20:47:37.782Z,100853.81
2023-03-15T20:50:41.704Z,100861.78
2023-03-15T20:53:44.418Z,100860.00
2023-03-15T20:56:51.745Z,100860.00
2023-03-15T21:00:01.834Z,100862.63
2023-03-15T21:03:04.700Z,100866.19
2023-03-15T21:06:09.473Z,100868.84
2023-03-15T21:09:12.141Z,100862.69
2023-03-15T21:12:16.189Z,100867.13
2023-03-15T21:15:19.200Z,100871.56
2023-03-15T21:18:23.711Z,100863.56
2023-03-15T21:21:26.799Z,100858.22
2023-03-15T21:24:31.152Z,100867.09
2023-03-15T21:27:35.371Z,100867.09
2023-03-15T21:30:42.479Z,100867.97
2023-03-15T21:33:45.142Z,100866.16
2023-03-15T21:36:47.975Z,100875.94
2023-03-15T21:39:54.484Z,100877.72
2023-03-15T21:42:58.802Z,100881.25
2023-03-15T21:46:07.343Z,100887.47
2023-03-15T21:49:12.016Z,100878.59
2023-03-15T21:52:16.268Z,100887.50
2023-03-15T21:55:19.725Z,100888.41
2023-03-15T21:58:24.264Z,100882.25
2023-03-15T22:01:27.282Z,100889.34
2023-03-15T22:04:30.198Z,100891.16
2023-03-15T22:07:32.988Z,100900.06
2023-03-15T22:10:36.480Z,100891.16
2023-03-15T22:13:41.841Z,100891.16
2023-03-15T22:16:44.640Z,100883.16
2023-03-15T22:19:49.868Z,100879.56
2023-03-15T22:22:52.977Z,100878.66
2023-03-15T22:25:57.112Z,100881.25
2023-03-15T22:29:03.362Z,100881.28
2023-03-15T22:32:06.869Z,100883.97
2023-03-15T22:35:09.845Z,100885.78
2023-03-15T22:38:12.992Z,100881.34
2023-03-15T22:41:15.768Z,100877.78
2023-03-15T22:44:20.100Z,100886.72
2023-03-15T22:47:22.819Z,100871.59
2023-03-15T22:50:25.924Z,100868.03
2023-03-15T22:53:29.552Z,100876.06
2023-03-15T22:56:32.209Z,100871.63
2023-03-15T22:59:36.317Z,100871.63
2023-03-15T23:02:39.283Z,100875.16
2023-03-15T23:05:46.248Z,100883.16
2023-03-15T23:08:48.944Z,100881.34
2023-03-15T23:11:51.676Z,100874.22
2023-03-15T23:14:55.786Z,100867.16
2023-03-15T23:18:02.202Z,100868.94
2023-03-15T23:21:06.831Z,100871.50
2023-03-15T23:24:10.058Z,100866.13
2023-03-15T23:27:13.913Z,100871.53
2023-03-15T23:30:18.771Z,100872.38
2023-03-15T23:33:22.184Z,100876.75
2023-03-15T23:36:24.832Z,100878.44
2023-03-15T23:39:29.673Z,100876.69
2023-03-15T23:42:32.663Z,100877.63
2023-03-15T23:45:38.247Z,100875.88
2023-03-15T23:48:42.149Z,100880.31
2023-03-15T23:51:46.880Z,100886.47
2023-03-15T23:54:58.762Z,100886.44
2023-03-15T23:58:02.965Z,100886.44
